Santo, Texas
Current Conditions -  °F | °C
As of 10:53 PM on Thursday 27 Nov 2014 (Local Time) from KMWL Reporting Station
Clear Clear  
Wind Chill: 38°   Ceiling: Unl
Heat Index: 42°   Visibility: 10mi
Dew Point: 29°   Wind: 7mph
Humidity: 60%   Direction: 150°SSE
Pressure: 30.33"   Gusts: NA
Location:  32.6°N, 98.22°W
Report Text: KMWL 280453Z AUTO 15006KT 10SM CLR 06/M02 A3033 RMK AO2 SLP271 T00561017
Loading
Personal Weather Stations






























Interactive Weather Map New forecast layout! Learn more

10-Day Weather Forecast

Advertisements
Track Severe Weather on mobile